Terminal Aerodrome Forecast
Issued by NWS Charleston, WV

Current Version | Previous Version | Text Only | Print | Product List | Glossary Off
Versions: 1 2 3 4 5 6 7 8 9 10 11 12 13 14 15 16 17 18 19 20

502
FTUS41 KRLX 050250 AAB
TAFEKN
TAF AMD
KEKN 050250Z 0503/0524 30004KT 6SM -SHSN SCT010 OVC025
     FM051300 30005KT P6SM BKN025
     FM051700 29005KT P6SM BKN250=

USA.gov is the U.S. government's official web portal to all federal, state and local government web resources and services.